createdAt,value
2017-06-10T00:00:00.040Z,14.7
2017-06-10T00:00:10.036Z,14.7
2017-06-10T00:00:20.030Z,14.7
2017-06-10T00:00:30.026Z,14.6
2017-06-10T00:00:40.018Z,14.7
2017-06-10T00:00:50.012Z,14.6
2017-06-10T00:01:00.006Z,14.6
2017-06-10T00:01:10.002Z,14.6
2017-06-10T00:01:19.996Z,14.7
2017-06-10T00:01:29.992Z,14.6
2017-06-10T00:01:39.985Z,14.7
2017-06-10T00:01:49.983Z,14.7
2017-06-10T00:01:59.974Z,14.6
2017-06-10T00:02:09.972Z,14.6
2017-06-10T00:02:19.964Z,14.6
2017-06-10T00:02:29.962Z,14.7
2017-06-10T00:02:39.957Z,14.6
2017-06-10T00:02:49.950Z,14.6
2017-06-10T00:02:59.942Z,14.6
2017-06-10T00:03:09.939Z,14.7
2017-06-10T00:03:19.935Z,14.7
2017-06-10T00:03:29.927Z,14.6
2017-06-10T00:03:39.926Z,14.6
2017-06-10T00:03:49.920Z,14.6
2017-06-10T00:03:59.910Z,14.6
2017-06-10T00:04:09.908Z,14.6
2017-06-10T00:04:19.901Z,14.6
2017-06-10T00:04:29.897Z,14.7
2017-06-10T00:04:39.898Z,14.7
2017-06-10T00:04:49.888Z,14.7
2017-06-10T00:04:59.882Z,14.7
2017-06-10T00:05:09.878Z,14.6
2017-06-10T00:05:19.871Z,14.6
2017-06-10T00:05:29.868Z,14.7
2017-06-10T00:05:39.862Z,14.7
2017-06-10T00:05:49.857Z,14.7
2017-06-10T00:05:59.849Z,14.7
2017-06-10T00:06:09.842Z,14.7
2017-06-10T00:06:19.841Z,14.7
2017-06-10T00:06:29.834Z,14.6
2017-06-10T00:06:39.829Z,14.7
2017-06-10T00:06:49.851Z,14.7
2017-06-10T00:06:59.818Z,14.7
2017-06-10T00:07:09.814Z,14.6
2017-06-10T00:07:19.808Z,14.7
2017-06-10T00:07:29.801Z,14.7
2017-06-10T00:07:39.797Z,14.7
2017-06-10T00:07:49.792Z,14.7
2017-06-10T00:07:59.788Z,14.8
2017-06-10T00:08:09.783Z,14.7
2017-06-10T00:08:19.774Z,14.7
2017-06-10T00:08:29.772Z,14.6
2017-06-10T00:08:39.767Z,14.7
2017-06-10T00:08:49.762Z,14.7
2017-06-10T00:08:59.754Z,14.7
2017-06-10T00:09:09.750Z,14.7
2017-06-10T00:09:19.770Z,14.7
2017-06-10T00:09:29.738Z,14.7
2017-06-10T00:09:39.733Z,14.7
2017-06-10T00:09:49.730Z,14.7
2017-06-10T00:09:59.725Z,14.7
2017-06-10T00:10:09.719Z,14.7
2017-06-10T00:10:19.712Z,14.7
2017-06-10T00:10:29.707Z,14.7
2017-06-10T00:10:39.703Z,14.7
2017-06-10T00:10:49.698Z,14.7
2017-06-10T00:10:59.693Z,14.7
2017-06-10T00:11:09.689Z,14.7
2017-06-10T00:11:19.681Z,14.7
2017-06-10T00:11:29.674Z,14.7
2017-06-10T00:11:39.671Z,14.8
2017-06-10T00:11:49.668Z,14.8
2017-06-10T00:11:59.659Z,14.8
2017-06-10T00:12:09.657Z,14.7
2017-06-10T00:12:19.648Z,14.7
2017-06-10T00:12:29.645Z,14.7
2017-06-10T00:12:39.646Z,14.7
2017-06-10T00:12:49.632Z,14.7
2017-06-10T00:12:59.630Z,14.8
2017-06-10T00:13:09.625Z,14.7
2017-06-10T00:13:19.616Z,14.7
2017-06-10T00:13:29.615Z,14.7
2017-06-10T00:13:39.605Z,14.7
2017-06-10T00:13:49.602Z,14.7
2017-06-10T00:13:59.597Z,14.7
2017-06-10T00:14:09.589Z,14.7
2017-06-10T00:14:19.585Z,14.7
2017-06-10T00:14:29.581Z,14.7
2017-06-10T00:14:39.575Z,14.7
2017-06-10T00:14:49.570Z,14.7
2017-06-10T00:14:59.564Z,14.8
2017-06-10T00:15:09.558Z,14.7
2017-06-10T00:15:19.556Z,14.7
2017-06-10T00:15:29.549Z,14.7
2017-06-10T00:15:39.545Z,14.7
2017-06-10T00:15:49.537Z,14.7
2017-06-10T00:15:59.539Z,14.7
2017-06-10T00:16:09.530Z,14.7
2017-06-10T00:16:19.522Z,14.7
2017-06-10T00:16:29.517Z,14.6
2017-06-10T00:16:39.511Z,14.6
2017-06-10T00:16:49.508Z,14.6
2017-06-10T00:16:59.504Z,14.6
2017-06-10T00:17:09.499Z,14.6
2017-06-10T00:17:19.490Z,14.6
2017-06-10T00:17:29.488Z,14.7
2017-06-10T00:17:39.480Z,14.6
2017-06-10T00:17:49.475Z,14.7
2017-06-10T00:17:59.470Z,14.6
2017-06-10T00:18:09.466Z,14.6
2017-06-10T00:18:19.458Z,14.7
2017-06-10T00:18:29.453Z,14.6
2017-06-10T00:18:39.449Z,14.6
2017-06-10T00:18:49.445Z,14.6
2017-06-10T00:18:59.439Z,14.6
2017-06-10T00:19:09.435Z,14.7
2017-06-10T00:19:19.429Z,14.6
2017-06-10T00:19:29.423Z,14.6
2017-06-10T00:19:39.420Z,14.6
2017-06-10T00:19:49.410Z,14.6
2017-06-10T00:19:59.408Z,14.6
2017-06-10T00:20:09.402Z,14.7
2017-06-10T00:20:19.395Z,14.6
2017-06-10T00:20:29.389Z,14.6
2017-06-10T00:20:39.384Z,14.7
2017-06-10T00:20:49.381Z,14.6
2017-06-10T00:20:59.377Z,14.7
2017-06-10T00:21:09.372Z,14.7
2017-06-10T00:21:19.364Z,14.7
2017-06-10T00:21:29.359Z,14.6
2017-06-10T00:21:39.355Z,14.7
2017-06-10T00:21:49.349Z,14.7
2017-06-10T00:21:59.344Z,14.7
2017-06-10T00:22:09.340Z,14.7
2017-06-10T00:22:19.335Z,14.7
2017-06-10T00:22:29.328Z,14.8
2017-06-10T00:22:39.322Z,14.6
2017-06-10T00:22:49.318Z,14.6
2017-06-10T00:22:59.312Z,14.6
2017-06-10T00:23:09.308Z,14.7
2017-06-10T00:23:19.300Z,14.7
2017-06-10T00:23:29.298Z,14.6
2017-06-10T00:23:39.294Z,14.6
2017-06-10T00:23:49.285Z,14.6
2017-06-10T00:23:59.277Z,14.7
2017-06-10T00:24:09.277Z,14.6
2017-06-10T00:24:19.271Z,14.7
2017-06-10T00:24:29.266Z,14.7
2017-06-10T00:24:39.260Z,14.6
2017-06-10T00:24:49.252Z,14.7
2017-06-10T00:24:59.251Z,14.6
2017-06-10T00:25:09.246Z,14.6
2017-06-10T00:25:19.238Z,14.6
2017-06-10T00:25:29.232Z,14.6
2017-06-10T00:25:39.226Z,14.6
2017-06-10T00:25:49.221Z,14.6
2017-06-10T00:25:59.221Z,14.6
2017-06-10T00:26:09.214Z,14.6
2017-06-10T00:26:19.205Z,14.7
2017-06-10T00:26:29.203Z,14.6
2017-06-10T00:26:39.198Z,14.7
2017-06-10T00:26:49.190Z,14.6
2017-06-10T00:26:59.182Z,14.6
2017-06-10T00:27:09.180Z,14.6
2017-06-10T00:27:19.175Z,14.6
2017-06-10T00:27:29.168Z,14.6
2017-06-10T00:27:39.164Z,14.7
2017-06-10T00:27:49.157Z,14.6
2017-06-10T00:27:59.153Z,14.7
2017-06-10T00:28:09.148Z,14.6
2017-06-10T00:28:19.144Z,14.6
2017-06-10T00:28:29.138Z,14.6
2017-06-10T00:28:39.132Z,14.7
2017-06-10T00:28:49.127Z,14.6
2017-06-10T00:28:59.121Z,14.6
2017-06-10T00:29:09.119Z,14.6
2017-06-10T00:29:19.113Z,14.7
2017-06-10T00:29:29.108Z,14.7
2017-06-10T00:29:39.101Z,14.6
2017-06-10T00:29:49.093Z,14.6
2017-06-10T00:29:59.090Z,14.7
2017-06-10T00:30:09.086Z,14.6
2017-06-10T00:30:19.081Z,14.6
2017-06-10T00:30:29.075Z,14.6
2017-06-10T00:30:39.068Z,14.7
2017-06-10T00:30:49.062Z,14.7
2017-06-10T00:30:59.059Z,14.6
2017-06-10T00:31:09.055Z,14.7
2017-06-10T00:31:19.048Z,14.7
2017-06-10T00:31:29.044Z,14.6
2017-06-10T00:31:39.037Z,14.6
2017-06-10T00:31:49.033Z,14.6
2017-06-10T00:31:59.028Z,14.5
2017-06-10T00:32:09.022Z,14.5
2017-06-10T00:32:19.015Z,14.6
2017-06-10T00:32:29.012Z,14.6
2017-06-10T00:32:39.006Z,14.5
2017-06-10T00:32:49.000Z,14.6
2017-06-10T00:32:58.997Z,14.6
2017-06-10T00:33:08.990Z,14.5
2017-06-10T00:33:18.985Z,14.6
2017-06-10T00:33:28.978Z,14.6
2017-06-10T00:33:38.974Z,14.5
2017-06-10T00:33:48.969Z,14.5
2017-06-10T00:33:58.963Z,14.5
2017-06-10T00:34:08.959Z,14.5
2017-06-10T00:34:19.192Z,14.5
2017-06-10T00:34:28.949Z,14.6
2017-06-10T00:34:38.943Z,14.5
2017-06-10T00:34:48.936Z,14.5
2017-06-10T00:34:58.932Z,14.6
2017-06-10T00:35:08.925Z,14.5
2017-06-10T00:35:18.922Z,14.5
2017-06-10T00:35:28.921Z,14.5
2017-06-10T00:35:38.911Z,14.5
2017-06-10T00:35:48.907Z,14.6
2017-06-10T00:35:58.900Z,14.5
2017-06-10T00:36:08.895Z,14.6
2017-06-10T00:36:18.890Z,14.5
2017-06-10T00:36:28.882Z,14.5
2017-06-10T00:36:38.879Z,14.5
2017-06-10T00:36:48.872Z,14.5
2017-06-10T00:36:58.870Z,14.6
2017-06-10T00:37:08.863Z,14.5
2017-06-10T00:37:18.857Z,14.6
2017-06-10T00:37:28.855Z,14.6
2017-06-10T00:37:38.848Z,14.5
2017-06-10T00:37:48.841Z,14.5
2017-06-10T00:37:58.838Z,14.4
2017-06-10T00:38:08.830Z,14.5
2017-06-10T00:38:18.823Z,14.6
2017-06-10T00:38:28.821Z,14.5
2017-06-10T00:38:38.815Z,14.6
2017-06-10T00:38:48.811Z,14.5
2017-06-10T00:38:58.804Z,14.6
2017-06-10T00:39:08.802Z,14.6
2017-06-10T00:39:18.794Z,14.5
2017-06-10T00:39:28.790Z,14.6
2017-06-10T00:39:38.785Z,14.5
2017-06-10T00:39:48.780Z,14.5
2017-06-10T00:39:58.774Z,14.5
2017-06-10T00:40:08.767Z,14.6
2017-06-10T00:40:18.760Z,14.6
2017-06-10T00:40:28.754Z,14.6
2017-06-10T00:40:38.751Z,14.5
2017-06-10T00:40:48.746Z,14.6
2017-06-10T00:40:58.741Z,14.5
2017-06-10T00:41:08.738Z,14.5
2017-06-10T00:41:18.730Z,14.5
2017-06-10T00:41:28.725Z,14.5
2017-06-10T00:41:38.721Z,14.6
2017-06-10T00:41:48.715Z,14.5
2017-06-10T00:41:58.709Z,14.5
2017-06-10T00:42:08.705Z,14.4
2017-06-10T00:42:18.700Z,14.5
2017-06-10T00:42:28.692Z,14.4
2017-06-10T00:42:38.688Z,14.4
2017-06-10T00:42:48.684Z,14.4
2017-06-10T00:42:58.679Z,14.5
2017-06-10T00:43:08.671Z,14.5
2017-06-10T00:43:18.667Z,14.5
2017-06-10T00:43:28.661Z,14.4
2017-06-10T00:43:38.656Z,14.4
2017-06-10T00:43:48.651Z,14.4
2017-06-10T00:43:58.647Z,14.4
2017-06-10T00:44:08.640Z,14.4
2017-06-10T00:44:18.636Z,14.4
2017-06-10T00:44:28.630Z,14.4
2017-06-10T00:44:38.626Z,14.4
2017-06-10T00:44:48.619Z,14.4
2017-06-10T00:44:58.615Z,14.5
2017-06-10T00:45:08.611Z,14.5
2017-06-10T00:45:18.605Z,14.5
2017-06-10T00:45:28.800Z,14.4
2017-06-10T00:45:38.594Z,14.4
2017-06-10T00:45:48.588Z,14.4
2017-06-10T00:45:58.585Z,14.5
2017-06-10T00:46:08.578Z,14.4
2017-06-10T00:46:18.573Z,14.4
2017-06-10T00:46:28.566Z,14.4
2017-06-10T00:46:38.561Z,14.4
2017-06-10T00:46:48.759Z,14.4
2017-06-10T00:46:58.550Z,14.4
2017-06-10T00:47:08.546Z,14.5
2017-06-10T00:47:18.540Z,14.4
2017-06-10T00:47:28.533Z,14.5
2017-06-10T00:47:38.528Z,14.4
2017-06-10T00:47:48.525Z,14.4
2017-06-10T00:47:58.517Z,14.4
2017-06-10T00:48:08.514Z,14.5
2017-06-10T00:48:18.507Z,14.5
2017-06-10T00:48:28.501Z,14.4
2017-06-10T00:48:38.699Z,14.4
2017-06-10T00:48:48.493Z,14.4
2017-06-10T00:48:58.488Z,14.4
2017-06-10T00:49:08.483Z,14.5
2017-06-10T00:49:18.475Z,14.4
2017-06-10T00:49:28.472Z,14.4
2017-06-10T00:49:38.467Z,14.4
2017-06-10T00:49:48.462Z,14.4
2017-06-10T00:49:58.657Z,14.4
2017-06-10T00:50:08.451Z,14.3
2017-06-10T00:50:18.445Z,14.4
2017-06-10T00:50:28.440Z,14.4
2017-06-10T00:50:38.435Z,14.4
2017-06-10T00:50:48.426Z,14.4
2017-06-10T00:50:58.424Z,14.4
2017-06-10T00:51:08.417Z,14.4
2017-06-10T00:51:18.414Z,14.4
2017-06-10T00:51:28.408Z,14.4
2017-06-10T00:51:38.401Z,14.4
2017-06-10T00:51:48.396Z,14.4
2017-06-10T00:51:58.393Z,14.4
2017-06-10T00:52:08.385Z,14.4
2017-06-10T00:52:18.381Z,14.4
2017-06-10T00:52:28.377Z,14.4
2017-06-10T00:52:38.380Z,14.4
2017-06-10T00:52:48.364Z,14.4
2017-06-10T00:52:58.361Z,14.4
2017-06-10T00:53:08.355Z,14.4
2017-06-10T00:53:18.349Z,14.4
2017-06-10T00:53:28.343Z,14.4
2017-06-10T00:53:38.337Z,14.4
2017-06-10T00:53:48.334Z,14.4
2017-06-10T00:53:58.330Z,14.4
2017-06-10T00:54:08.324Z,14.4
2017-06-10T00:54:18.317Z,14.4
2017-06-10T00:54:28.312Z,14.3
2017-06-10T00:54:38.306Z,14.4
2017-06-10T00:54:48.301Z,14.4
2017-06-10T00:54:58.293Z,14.4
2017-06-10T00:55:08.290Z,14.4
2017-06-10T00:55:18.285Z,14.4
2017-06-10T00:55:28.279Z,14.4
2017-06-10T00:55:38.274Z,14.3
2017-06-10T00:55:48.295Z,14.4
2017-06-10T00:55:58.265Z,14.4
2017-06-10T00:56:08.260Z,14.4
2017-06-10T00:56:18.253Z,14.4
2017-06-10T00:56:28.250Z,14.4
2017-06-10T00:56:38.244Z,14.4
2017-06-10T00:56:48.239Z,14.3
2017-06-10T00:56:58.231Z,14.4
2017-06-10T00:57:08.229Z,14.4
2017-06-10T00:57:18.224Z,14.4
2017-06-10T00:57:28.220Z,14.4
2017-06-10T00:57:38.211Z,14.3
2017-06-10T00:57:48.207Z,14.3
2017-06-10T00:57:58.200Z,14.3
2017-06-10T00:58:08.194Z,14.4
2017-06-10T00:58:18.190Z,14.4
2017-06-10T00:58:28.185Z,14.4
2017-06-10T00:58:38.178Z,14.3
2017-06-10T00:58:48.172Z,14.4
2017-06-10T00:58:58.170Z,14.3
2017-06-10T00:59:08.163Z,14.3
2017-06-10T00:59:18.162Z,14.3
2017-06-10T00:59:28.153Z,14.4
2017-06-10T00:59:38.146Z,14.3
2017-06-10T00:59:48.142Z,14.4
2017-06-10T00:59:58.135Z,14.3
2017-06-10T01:00:08.131Z,14.4
2017-06-10T01:00:18.125Z,14.3
2017-06-10T01:00:28.122Z,14.4
2017-06-10T01:00:38.116Z,14.3
2017-06-10T01:00:48.108Z,14.3
2017-06-10T01:00:58.107Z,14.3
2017-06-10T01:01:08.099Z,14.2
2017-06-10T01:01:18.093Z,14.3
2017-06-10T01:01:28.090Z,14.3
2017-06-10T01:01:38.084Z,14.3
2017-06-10T01:01:48.080Z,14.4
2017-06-10T01:01:58.074Z,14.2
2017-06-10T01:02:08.066Z,14.3
2017-06-10T01:02:18.062Z,14.3
2017-06-10T01:02:28.057Z,14.3
2017-06-10T01:02:38.052Z,14.4
2017-06-10T01:02:48.048Z,14.3
2017-06-10T01:02:58.041Z,14.4
2017-06-10T01:03:08.036Z,14.3
2017-06-10T01:03:18.030Z,14.3
2017-06-10T01:03:28.023Z,14.3
2017-06-10T01:03:38.020Z,14.3
2017-06-10T01:03:48.014Z,14.3
2017-06-10T01:03:58.009Z,14.3
2017-06-10T01:04:08.005Z,14.2
2017-06-10T01:04:17.999Z,14.3
2017-06-10T01:04:27.993Z,14.3
2017-06-10T01:04:37.991Z,14.3
2017-06-10T01:04:47.984Z,14.3
2017-06-10T01:04:57.978Z,14.3
2017-06-10T01:05:07.973Z,14.3
2017-06-10T01:05:17.968Z,14.3
2017-06-10T01:05:27.963Z,14.2
2017-06-10T01:05:37.954Z,14.3
2017-06-10T01:05:47.952Z,14.3
2017-06-10T01:05:57.944Z,14.3
2017-06-10T01:06:07.942Z,14.2
2017-06-10T01:06:17.937Z,14.3
2017-06-10T01:06:27.929Z,14.3
2017-06-10T01:06:37.923Z,14.3
2017-06-10T01:06:47.919Z,14.2
2017-06-10T01:06:57.912Z,14.2
2017-06-10T01:07:07.909Z,14.2
2017-06-10T01:07:17.904Z,14.3
2017-06-10T01:07:27.899Z,14.2
2017-06-10T01:07:37.893Z,14.2
2017-06-10T01:07:47.889Z,14.2
2017-06-10T01:07:57.881Z,14.2
2017-06-10T01:08:07.878Z,14.3
2017-06-10T01:08:17.871Z,14.3
2017-06-10T01:08:27.865Z,14.2
2017-06-10T01:08:37.863Z,14.3
2017-06-10T01:08:47.856Z,14.2
2017-06-10T01:08:57.851Z,14.2
2017-06-10T01:09:07.846Z,14.3
2017-06-10T01:09:17.841Z,14.3
2017-06-10T01:09:27.834Z,14.2
2017-06-10T01:09:37.826Z,14.2
2017-06-10T01:09:47.824Z,14.2
2017-06-10T01:09:57.821Z,14.3
2017-06-10T01:10:07.814Z,14.2
2017-06-10T01:10:17.806Z,14.2
2017-06-10T01:10:27.805Z,14.2
2017-06-10T01:10:37.796Z,14.1
2017-06-10T01:10:47.794Z,14.3
2017-06-10T01:10:57.785Z,14.2
2017-06-10T01:11:07.779Z,14.2
2017-06-10T01:11:17.777Z,14.2
2017-06-10T01:11:27.770Z,14.2
2017-06-10T01:11:37.766Z,14.2
2017-06-10T01:11:47.762Z,14.2
2017-06-10T01:11:57.753Z,14.2
2017-06-10T01:12:07.749Z,14.2
2017-06-10T01:12:17.745Z,14.2
2017-06-10T01:12:27.739Z,14.1
2017-06-10T01:12:37.732Z,14.1
2017-06-10T01:12:47.729Z,14.2
2017-06-10T01:12:57.722Z,14.2
2017-06-10T01:13:07.716Z,14.1
2017-06-10T01:13:17.711Z,14.2
2017-06-10T01:13:27.705Z,14.2
2017-06-10T01:13:37.703Z,14.2
2017-06-10T01:13:47.696Z,14.2
2017-06-10T01:13:57.689Z,14.1
2017-06-10T01:14:07.687Z,14.2
2017-06-10T01:14:17.680Z,14.2
2017-06-10T01:14:27.675Z,14.2
2017-06-10T01:14:37.670Z,14.2
2017-06-10T01:14:47.662Z,14.2
2017-06-10T01:14:57.658Z,14.2
2017-06-10T01:15:07.655Z,14.2
2017-06-10T01:15:17.648Z,14.2
2017-06-10T01:15:27.644Z,14.2
2017-06-10T01:15:37.639Z,14.2
2017-06-10T01:15:47.632Z,14.2
2017-06-10T01:15:57.625Z,14.1
2017-06-10T01:16:07.622Z,14.1
2017-06-10T01:16:17.617Z,14.2
2017-06-10T01:16:27.611Z,14.1
2017-06-10T01:16:37.604Z,14.1
2017-06-10T01:16:47.801Z,14.1
2017-06-10T01:16:57.596Z,14.2
2017-06-10T01:17:07.594Z,14.2
2017-06-10T01:17:17.586Z,14.2
2017-06-10T01:17:27.579Z,14.2
2017-06-10T01:17:37.575Z,14.2
2017-06-10T01:17:47.567Z,14.2
2017-06-10T01:17:57.565Z,14.2
2017-06-10T01:18:07.557Z,14.2
2017-06-10T01:18:17.554Z,14.1
2017-06-10T01:18:27.547Z,14.1
2017-06-10T01:18:37.543Z,14.2
2017-06-10T01:18:47.538Z,14.2
2017-06-10T01:18:57.532Z,14.2
2017-06-10T01:19:07.524Z,14.2
2017-06-10T01:19:17.519Z,14.2
2017-06-10T01:19:27.514Z,14.1
2017-06-10T01:19:37.513Z,14.2
2017-06-10T01:19:47.507Z,14.2
2017-06-10T01:19:57.500Z,14.2
2017-06-10T01:20:07.496Z,14.2
2017-06-10T01:20:17.491Z,14.1
2017-06-10T01:20:27.483Z,14.2
2017-06-10T01:20:37.479Z,14.2
2017-06-10T01:20:47.472Z,14.2
2017-06-10T01:20:57.468Z,14.2
2017-06-10T01:21:07.464Z,14.1
2017-06-10T01:21:17.458Z,14.1
2017-06-10T01:21:27.451Z,14.2
2017-06-10T01:21:37.444Z,14.1
2017-06-10T01:21:47.442Z,14.2
2017-06-10T01:21:57.439Z,14.1
2017-06-10T01:22:07.428Z,14.2
2017-06-10T01:22:17.426Z,14.2
2017-06-10T01:22:27.422Z,14.2
2017-06-10T01:22:37.414Z,14.2
2017-06-10T01:22:47.411Z,14.2
2017-06-10T01:22:57.401Z,14.2
2017-06-10T01:23:07.400Z,14.2
2017-06-10T01:23:17.392Z,14.2
2017-06-10T01:23:27.387Z,14.1
2017-06-10T01:23:37.381Z,14.2
2017-06-10T01:23:47.376Z,14.2
2017-06-10T01:23:57.370Z,14.2
2017-06-10T01:24:07.368Z,14.2
2017-06-10T01:24:17.361Z,14.2
2017-06-10T01:24:27.361Z,14.1
2017-06-10T01:24:37.351Z,14.2
2017-06-10T01:24:47.345Z,14.2
2017-06-10T01:24:57.339Z,14.2
2017-06-10T01:25:07.335Z,14.2
2017-06-10T01:25:17.330Z,14.2
2017-06-10T01:25:27.324Z,14.2
2017-06-10T01:25:37.319Z,14.2
2017-06-10T01:25:47.315Z,14.2
2017-06-10T01:25:57.306Z,14.1
2017-06-10T01:26:07.303Z,14.2
2017-06-10T01:26:17.297Z,14.1
2017-06-10T01:26:27.291Z,14
2017-06-10T01:26:37.283Z,14.1
2017-06-10T01:26:47.281Z,14.1
2017-06-10T01:26:57.273Z,14
2017-06-10T01:27:07.272Z,14.1
2017-06-10T01:27:17.264Z,14.1
2017-06-10T01:27:27.258Z,14
2017-06-10T01:27:37.254Z,14.1
2017-06-10T01:27:47.251Z,14.1
2017-06-10T01:27:57.244Z,14.1
2017-06-10T01:28:07.241Z,14.1
2017-06-10T01:28:17.232Z,14.2
2017-06-10T01:28:27.227Z,14.1
2017-06-10T01:28:37.221Z,14.1
2017-06-10T01:28:47.217Z,14
2017-06-10T01:28:57.211Z,14.1
2017-06-10T01:29:07.209Z,14.1
2017-06-10T01:29:17.200Z,14.1
2017-06-10T01:29:27.198Z,14.1
2017-06-10T01:29:37.192Z,14.1
2017-06-10T01:29:47.184Z,14.2
2017-06-10T01:29:57.182Z,14.1
2017-06-10T01:30:07.174Z,14
2017-06-10T01:30:17.169Z,14
2017-06-10T01:30:27.166Z,14.1
2017-06-10T01:30:37.160Z,14.1
2017-06-10T01:30:47.153Z,14.1
2017-06-10T01:30:57.352Z,14.1
2017-06-10T01:31:07.141Z,14.2
2017-06-10T01:31:17.139Z,14.1
2017-06-10T01:31:27.133Z,14.2
2017-06-10T01:31:37.333Z,14.1
2017-06-10T01:31:47.123Z,14.2
2017-06-10T01:31:57.117Z,14.1
2017-06-10T01:32:07.113Z,14.1
2017-06-10T01:32:17.105Z,14.1
2017-06-10T01:32:27.101Z,14.2
2017-06-10T01:32:37.096Z,14
2017-06-10T01:32:47.092Z,14.1
2017-06-10T01:32:57.083Z,14
2017-06-10T01:33:07.079Z,14
2017-06-10T01:33:17.277Z,14
2017-06-10T01:33:27.069Z,14
2017-06-10T01:33:37.062Z,14.1
2017-06-10T01:33:47.056Z,14
2017-06-10T01:33:57.051Z,14
2017-06-10T01:34:07.046Z,14
2017-06-10T01:34:17.043Z,14
2017-06-10T01:34:27.037Z,14
2017-06-10T01:34:37.030Z,14
2017-06-10T01:34:47.027Z,14
2017-06-10T01:34:57.020Z,14
2017-06-10T01:35:07.014Z,14
2017-06-10T01:35:17.011Z,14.1
2017-06-10T01:35:27.005Z,14
2017-06-10T01:35:37.001Z,14
2017-06-10T01:35:46.994Z,14
2017-06-10T01:35:56.989Z,14
2017-06-10T01:36:06.984Z,14
2017-06-10T01:36:16.977Z,14.1
2017-06-10T01:36:26.972Z,14.1
2017-06-10T01:36:36.966Z,14.1
2017-06-10T01:36:46.962Z,14.1
2017-06-10T01:36:56.957Z,14.1
2017-06-10T01:37:06.953Z,14.2
2017-06-10T01:37:16.944Z,14.1
2017-06-10T01:37:26.941Z,14.2
2017-06-10T01:37:36.932Z,14.1
2017-06-10T01:37:46.931Z,14.2
2017-06-10T01:37:56.924Z,14.2
2017-06-10T01:38:06.920Z,14.1
2017-06-10T01:38:16.914Z,14
2017-06-10T01:38:26.908Z,14.1
2017-06-10T01:38:36.905Z,14.1
2017-06-10T01:38:46.898Z,14.2
2017-06-10T01:38:56.892Z,14.1
2017-06-10T01:39:06.887Z,14.1
2017-06-10T01:39:16.883Z,14.2
2017-06-10T01:39:26.877Z,14.1
2017-06-10T01:39:36.869Z,14.1
2017-06-10T01:39:46.866Z,14.2
2017-06-10T01:39:56.860Z,14.1
2017-06-10T01:40:06.858Z,14.2
2017-06-10T01:40:16.851Z,14.2
2017-06-10T01:40:26.844Z,14.1
2017-06-10T01:40:36.838Z,14.1
2017-06-10T01:40:46.832Z,14.1
2017-06-10T01:40:56.827Z,14.1
2017-06-10T01:41:06.824Z,14
2017-06-10T01:41:16.815Z,14
2017-06-10T01:41:26.811Z,14.1
2017-06-10T01:41:36.806Z,14
2017-06-10T01:41:46.801Z,14
2017-06-10T01:41:56.796Z,14.1
2017-06-10T01:42:06.791Z,14
2017-06-10T01:42:16.787Z,14.2
2017-06-10T01:42:26.780Z,14.1
2017-06-10T01:42:36.774Z,14.1
2017-06-10T01:42:46.768Z,14.1
2017-06-10T01:42:56.765Z,14.2
2017-06-10T01:43:06.759Z,14.1
2017-06-10T01:43:16.752Z,14.1
2017-06-10T01:43:26.748Z,14.2
2017-06-10T01:43:36.742Z,14
2017-06-10T01:43:46.738Z,14.1
2017-06-10T01:43:56.733Z,14.1
2017-06-10T01:44:06.728Z,14.1
2017-06-10T01:44:16.720Z,14.1
2017-06-10T01:44:26.715Z,14.1
2017-06-10T01:44:36.714Z,14.1
2017-06-10T01:44:46.707Z,14.1
2017-06-10T01:44:56.701Z,14.2
2017-06-10T01:45:06.696Z,14.1
2017-06-10T01:45:16.690Z,14.2
2017-06-10T01:45:26.684Z,14.2
2017-06-10T01:45:36.678Z,14.1
2017-06-10T01:45:46.674Z,14.1
2017-06-10T01:45:56.670Z,14
2017-06-10T01:46:06.661Z,14.1
2017-06-10T01:46:16.657Z,14.1
2017-06-10T01:46:26.652Z,14.2
2017-06-10T01:46:36.648Z,14.1
2017-06-10T01:46:46.642Z,14
2017-06-10T01:46:56.637Z,14
2017-06-10T01:47:06.633Z,14
2017-06-10T01:47:16.624Z,14
2017-06-10T01:47:26.617Z,14
2017-06-10T01:47:36.616Z,14
2017-06-10T01:47:46.611Z,14.1
2017-06-10T01:47:56.605Z,14.1
2017-06-10T01:48:06.598Z,14
2017-06-10T01:48:16.595Z,14
2017-06-10T01:48:26.586Z,14
2017-06-10T01:48:36.583Z,14
2017-06-10T01:48:46.576Z,14
2017-06-10T01:48:56.573Z,14
2017-06-10T01:49:06.567Z,14
2017-06-10T01:49:16.565Z,14
2017-06-10T01:49:26.555Z,14
2017-06-10T01:49:36.551Z,14
2017-06-10T01:49:46.546Z,14
2017-06-10T01:49:56.538Z,14
2017-06-10T01:50:06.536Z,14
2017-06-10T01:50:16.531Z,14
2017-06-10T01:50:26.524Z,14
2017-06-10T01:50:36.521Z,14
2017-06-10T01:50:46.516Z,14
2017-06-10T01:50:56.529Z,14.1
2017-06-10T01:51:06.504Z,14
2017-06-10T01:51:16.499Z,14
2017-06-10T01:51:26.494Z,13.9
2017-06-10T01:51:36.489Z,14
2017-06-10T01:51:46.482Z,13.9
2017-06-10T01:51:56.475Z,13.9
2017-06-10T01:52:06.470Z,13.9
2017-06-10T01:52:16.465Z,14
2017-06-10T01:52:26.459Z,13.9
2017-06-10T01:52:36.455Z,14
2017-06-10T01:52:46.449Z,13.9
2017-06-10T01:52:56.445Z,13.9
2017-06-10T01:53:06.439Z,13.9
2017-06-10T01:53:16.435Z,13.9
2017-06-10T01:53:26.430Z,14
2017-06-10T01:53:36.422Z,14
2017-06-10T01:53:46.416Z,13.9
2017-06-10T01:53:56.411Z,13.9
2017-06-10T01:54:06.405Z,13.9
2017-06-10T01:54:16.404Z,14
2017-06-10T01:54:26.398Z,13.9
2017-06-10T01:54:36.389Z,13.9
2017-06-10T01:54:46.386Z,13.9
2017-06-10T01:54:56.380Z,13.9
2017-06-10T01:55:06.374Z,14
2017-06-10T01:55:16.371Z,13.8
2017-06-10T01:55:26.364Z,13.9
2017-06-10T01:55:36.358Z,13.9
2017-06-10T01:55:46.353Z,13.9
2017-06-10T01:55:56.349Z,13.9
2017-06-10T01:56:06.343Z,13.9
2017-06-10T01:56:16.336Z,13.9
2017-06-10T01:56:26.331Z,13.9
2017-06-10T01:56:36.356Z,13.9
2017-06-10T01:56:46.321Z,13.9
2017-06-10T01:56:56.316Z,14
2017-06-10T01:57:06.310Z,13.9
2017-06-10T01:57:16.307Z,13.9
2017-06-10T01:57:26.299Z,13.9
2017-06-10T01:57:36.293Z,13.9
2017-06-10T01:57:46.289Z,13.9
2017-06-10T01:57:56.283Z,13.9
2017-06-10T01:58:06.277Z,13.9
2017-06-10T01:58:16.272Z,13.9
2017-06-10T01:58:26.268Z,13.9
2017-06-10T01:58:36.262Z,13.9
2017-06-10T01:58:46.256Z,13.9
2017-06-10T01:58:56.253Z,13.9
2017-06-10T01:59:06.245Z,13.9
2017-06-10T01:59:16.242Z,13.9
2017-06-10T01:59:26.236Z,13.9
2017-06-10T01:59:36.232Z,13.9
2017-06-10T01:59:46.223Z,13.9
2017-06-10T01:59:56.217Z,13.9
2017-06-10T02:00:06.214Z,13.9
2017-06-10T02:00:16.210Z,13.9
2017-06-10T02:00:26.202Z,13.9
2017-06-10T02:00:36.197Z,13.9
2017-06-10T02:00:46.194Z,13.9
2017-06-10T02:00:56.189Z,13.9
2017-06-10T02:01:06.185Z,13.9
2017-06-10T02:01:16.178Z,13.9
2017-06-10T02:01:26.171Z,13.9
2017-06-10T02:01:36.165Z,13.9
2017-06-10T02:01:46.158Z,13.9
2017-06-10T02:01:56.154Z,13.9
2017-06-10T02:02:06.149Z,13.8
2017-06-10T02:02:16.143Z,13.9
2017-06-10T02:02:26.139Z,13.8
2017-06-10T02:02:36.134Z,13.9
2017-06-10T02:02:46.131Z,13.8
2017-06-10T02:02:56.122Z,13.8
2017-06-10T02:03:06.117Z,13.9
2017-06-10T02:03:16.113Z,13.8
2017-06-10T02:03:26.106Z,13.8
2017-06-10T02:03:36.100Z,13.8
2017-06-10T02:03:46.095Z,13.8
2017-06-10T02:03:56.089Z,13.8
2017-06-10T02:04:06.107Z,13.8
2017-06-10T02:04:16.082Z,13.8
2017-06-10T02:04:26.076Z,13.8
2017-06-10T02:04:36.068Z,13.8
2017-06-10T02:04:46.065Z,13.8
2017-06-10T02:04:56.061Z,13.8
2017-06-10T02:05:06.056Z,13.8
2017-06-10T02:05:16.050Z,13.8
2017-06-10T02:05:26.045Z,13.8
2017-06-10T02:05:36.037Z,13.8
2017-06-10T02:05:46.030Z,13.8
2017-06-10T02:05:56.028Z,13.7
2017-06-10T02:06:06.021Z,13.8
2017-06-10T02:06:16.018Z,13.8
2017-06-10T02:06:26.012Z,13.8
2017-06-10T02:06:36.005Z,13.8
2017-06-10T02:06:46.000Z,13.8
2017-06-10T02:06:55.997Z,13.8
2017-06-10T02:07:05.989Z,13.8
2017-06-10T02:07:15.986Z,13.7
2017-06-10T02:07:25.980Z,13.8
2017-06-10T02:07:35.975Z,13.9
2017-06-10T02:07:45.970Z,13.8
2017-06-10T02:07:55.963Z,13.8
2017-06-10T02:08:05.957Z,13.8
2017-06-10T02:08:15.952Z,13.8
2017-06-10T02:08:25.944Z,13.8
2017-06-10T02:08:35.941Z,13.8
2017-06-10T02:08:45.937Z,13.8
2017-06-10T02:08:55.932Z,13.8
2017-06-10T02:09:05.927Z,13.8
2017-06-10T02:09:15.919Z,13.8
2017-06-10T02:09:25.913Z,13.8
2017-06-10T02:09:35.913Z,13.8
2017-06-10T02:09:45.903Z,13.8
2017-06-10T02:09:55.901Z,13.8
2017-06-10T02:10:05.893Z,13.8
2017-06-10T02:10:15.889Z,13.8
2017-06-10T02:10:25.883Z,13.8
2017-06-10T02:10:35.875Z,13.8
2017-06-10T02:10:45.873Z,13.7
2017-06-10T02:10:55.864Z,13.8
2017-06-10T02:11:05.863Z,13.7
2017-06-10T02:11:15.855Z,13.8
2017-06-10T02:11:25.850Z,13.8
2017-06-10T02:11:35.847Z,13.8
2017-06-10T02:11:45.839Z,13.8
2017-06-10T02:11:55.835Z,13.8
2017-06-10T02:12:05.828Z,13.8
2017-06-10T02:12:15.824Z,13.8
2017-06-10T02:12:25.820Z,13.8
2017-06-10T02:12:35.812Z,13.8
2017-06-10T02:12:45.808Z,13.8
2017-06-10T02:12:55.801Z,13.8
2017-06-10T02:13:05.799Z,13.8
2017-06-10T02:13:15.792Z,13.8
2017-06-10T02:13:25.787Z,13.8
2017-06-10T02:13:35.780Z,13.8